Time;durP1;ratioP1;P1;durP2;ratioP2;P2;SDS_P1;SDS_P2;PMS_P1;PMS_P2;Temp;Humidity;BMP_temperature;BMP_pressure;BME280_temperature;BME280_humidity;BME280_pressure;Samples;Min_cycle;Max_cycle;Signal;HPM_P1;HPM_P2
2024/03/15 00:01:46;;;;;;;;;;;6.90;99.90;;;;;;4965998;28;19932;-63
2024/03/15 00:04:17;;;;;;;;;;;6.80;99.90;;;;;;4984045;28;19933;-63
2024/03/15 00:06:49;;;;;;;;;;;6.80;99.90;;;;;;4991763;28;19926;-62
2024/03/15 00:09:21;;;;;;;;;;;6.80;99.90;;;;;;4997771;28;20027;-63
2024/03/15 00:11:53;;;;;;;;;;;6.70;99.90;;;;;;4998349;28;19926;-63
2024/03/15 00:14:25;;;;;;;;;;;6.70;99.90;;;;;;4996494;28;20405;-63
2024/03/15 00:16:56;;;;;;;;;;;6.60;99.90;;;;;;4994305;28;19926;-62
2024/03/15 00:19:28;;;;;;;;;;;6.60;99.90;;;;;;5001792;28;20461;-63
2024/03/15 00:22:00;;;;;;;;;;;6.60;99.90;;;;;;4998275;28;20479;-63
2024/03/15 00:24:32;;;;;;;;;;;6.60;99.90;;;;;;4983846;28;19925;-63
2024/03/15 00:27:04;;;;;;;;;;;6.60;99.90;;;;;;4998725;28;19926;-62
2024/03/15 00:29:36;;;;;;;;;;;6.50;99.90;;;;;;4997201;28;20012;-63
2024/03/15 00:32:08;;;;;;;;;;;6.50;99.90;;;;;;4992917;28;20012;-62
2024/03/15 00:34:40;;;;;;;;;;;6.50;99.90;;;;;;4974383;28;19926;-62
2024/03/15 00:37:11;;;;;;;;;;;6.40;99.90;;;;;;4977264;28;20394;-62
2024/03/15 00:39:43;;;;;;;;;;;6.40;99.90;;;;;;4984631;28;19966;-62
2024/03/15 00:42:15;;;;;;;;;;;6.30;99.90;;;;;;4976881;28;19926;-62
2024/03/15 00:44:48;;;;;;;;;;;6.30;99.90;;;;;;4970059;28;19926;-62
2024/03/15 00:47:20;;;;;;;;;;;6.30;99.90;;;;;;4975012;28;20310;-62
2024/03/15 00:49:52;;;;;;;;;;;6.30;99.90;;;;;;4984212;28;19926;-62
2024/03/15 00:52:24;;;;;;;;;;;6.40;99.90;;;;;;4986985;28;19930;-62
2024/03/15 00:54:56;;;;;;;;;;;6.40;99.90;;;;;;4984719;28;19933;-63
2024/03/15 00:57:27;;;;;;;;;;;6.30;99.90;;;;;;4968743;28;19930;-62
2024/03/15 00:59:59;;;;;;;;;;;6.30;99.90;;;;;;4985462;28;19933;-62
2024/03/15 01:02:30;;;;;;;;;;;6.30;99.90;;;;;;4983945;28;19937;-62
2024/03/15 01:05:05;;;;;;;;;;;6.20;99.90;;;;;;4980959;28;19985;-62
2024/03/15 01:07:37;;;;;;;;;;;6.30;99.90;;;;;;4976899;28;20025;-62
2024/03/15 01:10:09;;;;;;;;;;;6.20;99.90;;;;;;4981780;28;20013;-62
2024/03/15 01:12:40;;;;;;;;;;;6.30;99.90;;;;;;4977255;28;19948;-62
2024/03/15 01:15:12;;;;;;;;;;;6.30;99.90;;;;;;4988184;28;19984;-62
2024/03/15 01:17:44;;;;;;;;;;;6.20;99.90;;;;;;4974484;28;20325;-62
2024/03/15 01:20:16;;;;;;;;;;;6.20;99.90;;;;;;4968533;28;19929;-62
2024/03/15 01:22:48;;;;;;;;;;;6.30;99.90;;;;;;4985917;28;19930;-62
2024/03/15 01:25:20;;;;;;;;;;;6.30;99.90;;;;;;4986242;28;19938;-62
2024/03/15 01:27:52;;;;;;;;;;;6.30;99.90;;;;;;4973944;28;19964;-62
2024/03/15 01:30:24;;;;;;;;;;;6.40;99.90;;;;;;4974903;28;20425;-62
2024/03/15 01:32:56;;;;;;;;;;;6.40;99.90;;;;;;4984270;28;19926;-62
2024/03/15 01:35:32;;;;;;;;;;;6.40;99.90;;;;;;4977621;28;19930;-62
2024/03/15 01:38:04;;;;;;;;;;;6.40;99.90;;;;;;4984028;28;19934;-62
2024/03/15 01:40:35;;;;;;;;;;;6.40;99.90;;;;;;4981988;28;19932;-62
2024/03/15 01:43:10;;;;;;;;;;;6.30;99.90;;;;;;4979649;28;19926;-62
2024/03/15 01:45:42;;;;;;;;;;;6.30;99.90;;;;;;4986521;28;20347;-62
2024/03/15 01:48:14;;;;;;;;;;;6.30;99.90;;;;;;4985006;28;20012;-62
2024/03/15 01:50:47;;;;;;;;;;;6.20;99.90;;;;;;4985408;28;20016;-62
2024/03/15 01:53:19;;;;;;;;;;;6.20;99.90;;;;;;4984841;28;20421;-62
2024/03/15 01:55:46;;;;;;;;;;;6.20;99.90;;;;;;4986083;28;20333;-63
2024/03/15 01:58:18;;;;;;;;;;;6.20;99.90;;;;;;4972329;28;19929;-63
2024/03/15 02:00:50;;;;;;;;;;;6.10;99.90;;;;;;4975704;28;20020;-62
2024/03/15 02:03:23;;;;;;;;;;;6.20;99.90;;;;;;4971596;28;20318;-62
2024/03/15 02:05:50;;;;;;;;;;;6.30;99.90;;;;;;4977424;28;19925;-62
2024/03/15 02:08:22;;;;;;;;;;;6.30;99.90;;;;;;4974507;28;20037;-63
2024/03/15 02:10:53;;;;;;;;;;;6.20;99.90;;;;;;4983685;28;19929;-63
2024/03/15 02:13:20;;;;;;;;;;;6.30;99.90;;;;;;4965649;28;20293;-62
2024/03/15 02:15:52;;;;;;;;;;;6.40;99.90;;;;;;4983724;28;20421;-62
2024/03/15 02:18:24;;;;;;;;;;;6.40;99.90;;;;;;4982561;28;19926;-62
2024/03/15 02:20:56;;;;;;;;;;;6.40;99.90;;;;;;4973176;28;19936;-62
2024/03/15 02:23:27;;;;;;;;;;;6.50;99.90;;;;;;4981569;28;19926;-62
2024/03/15 02:25:59;;;;;;;;;;;6.80;99.90;;;;;;4984313;28;20028;-62
2024/03/15 02:28:31;;;;;;;;;;;7.10;99.90;;;;;;4977309;28;19981;-62
2024/03/15 02:31:03;;;;;;;;;;;7.10;99.90;;;;;;4982353;28;20016;-62
2024/03/15 02:33:34;;;;;;;;;;;7.10;99.90;;;;;;4986317;28;19933;-62
2024/03/15 02:36:01;;;;;;;;;;;7.10;99.90;;;;;;4980540;28;20018;-62
2024/03/15 02:38:33;;;;;;;;;;;7.00;99.90;;;;;;4983528;28;19930;-62
2024/03/15 02:41:09;;;;;;;;;;;6.90;99.90;;;;;;4983368;28;20357;-62
2024/03/15 02:43:41;;;;;;;;;;;6.80;99.90;;;;;;4973142;28;19930;-62
2024/03/15 02:46:16;;;;;;;;;;;6.80;99.90;;;;;;4973877;28;20394;-62
2024/03/15 02:48:47;;;;;;;;;;;6.80;99.90;;;;;;4974774;28;20476;-62
2024/03/15 02:51:19;;;;;;;;;;;7.00;99.90;;;;;;4982585;28;20402;-62
2024/03/15 02:53:52;;;;;;;;;;;7.40;99.90;;;;;;4975955;28;19933;-62
2024/03/15 02:56:24;;;;;;;;;;;7.70;99.90;;;;;;4979279;28;19930;-62
2024/03/15 02:58:56;;;;;;;;;;;8.00;99.90;;;;;;4972227;28;20016;-62
2024/03/15 03:01:25;;;;;;;;;;;8.30;99.90;;;;;;4967980;28;19936;-62
2024/03/15 03:03:56;;;;;;;;;;;8.50;99.90;;;;;;4983989;28;19926;-62
2024/03/15 03:06:31;;;;;;;;;;;8.60;99.90;;;;;;4972865;28;19972;-62
2024/03/15 03:09:03;;;;;;;;;;;8.60;99.90;;;;;;4972965;28;19925;-62
2024/03/15 03:11:36;;;;;;;;;;;8.60;99.90;;;;;;4982041;28;19944;-62
2024/03/15 03:14:09;;;;;;;;;;;8.70;99.90;;;;;;4985101;28;19932;-62
2024/03/15 03:16:36;;;;;;;;;;;8.80;99.90;;;;;;4982083;28;19926;-62
2024/03/15 03:19:10;;;;;;;;;;;8.80;99.90;;;;;;4982886;28;19925;-62
2024/03/15 03:21:43;;;;;;;;;;;8.90;99.90;;;;;;4978497;28;19930;-62
2024/03/15 03:24:15;;;;;;;;;;;8.90;99.90;;;;;;4972697;28;19932;-62
2024/03/15 03:26:47;;;;;;;;;;;8.90;99.90;;;;;;4972490;28;19927;-63
2024/03/15 03:29:14;;;;;;;;;;;8.90;99.90;;;;;;4983080;28;20021;-63
2024/03/15 03:31:46;;;;;;;;;;;8.90;99.90;;;;;;4984588;28;20329;-62
2024/03/15 03:34:18;;;;;;;;;;;8.90;99.90;;;;;;4973261;28;21235;-62
2024/03/15 03:36:50;;;;;;;;;;;8.70;99.90;;;;;;4984269;28;20032;-62
2024/03/15 03:39:21;;;;;;;;;;;8.40;99.90;;;;;;4985966;28;19930;-62
2024/03/15 03:41:54;;;;;;;;;;;8.10;99.90;;;;;;4966960;28;19930;-62
2024/03/15 03:44:26;;;;;;;;;;;7.80;99.90;;;;;;4988928;28;19930;-62
2024/03/15 03:46:58;;;;;;;;;;;7.60;99.90;;;;;;4982699;28;19930;-62
2024/03/15 03:49:25;;;;;;;;;;;7.40;99.90;;;;;;4988060;28;20463;-62
2024/03/15 03:51:59;;;;;;;;;;;7.30;99.90;;;;;;4983600;28;19926;-62
2024/03/15 03:54:31;;;;;;;;;;;7.20;99.90;;;;;;4985559;28;19925;-62
2024/03/15 03:57:03;;;;;;;;;;;7.10;99.90;;;;;;4981626;28;20309;-62
2024/03/15 03:59:35;;;;;;;;;;;7.10;99.90;;;;;;4972194;28;19927;-62
2024/03/15 04:02:07;;;;;;;;;;;7.00;99.90;;;;;;4987736;28;19929;-62
2024/03/15 04:04:39;;;;;;;;;;;7.00;99.90;;;;;;4968296;28;20302;-62
2024/03/15 04:07:11;;;;;;;;;;;6.90;99.90;;;;;;4989493;28;19984;-62
2024/03/15 04:09:42;;;;;;;;;;;6.80;99.90;;;;;;4983846;28;19929;-62
2024/03/15 04:12:14;;;;;;;;;;;6.80;99.90;;;;;;4974752;28;20020;-63
2024/03/15 04:14:41;;;;;;;;;;;6.80;99.90;;;;;;4992348;28;20460;-62
2024/03/15 04:17:12;;;;;;;;;;;6.80;99.90;;;;;;4982266;28;19968;-62
2024/03/15 04:19:44;;;;;;;;;;;6.70;99.90;;;;;;4988196;28;19960;-62
2024/03/15 04:22:16;;;;;;;;;;;6.60;99.90;;;;;;4987034;28;19925;-62
2024/03/15 04:24:49;;;;;;;;;;;6.60;99.90;;;;;;4972758;28;19926;-62
2024/03/15 04:27:25;;;;;;;;;;;6.50;99.90;;;;;;4977190;28;19934;-62
2024/03/15 04:29:57;;;;;;;;;;;6.50;99.90;;;;;;4988549;28;19930;-62
2024/03/15 04:32:31;;;;;;;;;;;6.60;99.90;;;;;;4984493;28;19933;-62
2024/03/15 04:35:06;;;;;;;;;;;6.70;99.90;;;;;;4980679;28;19933;-62
2024/03/15 04:37:37;;;;;;;;;;;6.60;99.90;;;;;;4985648;28;20402;-62
2024/03/15 04:40:10;;;;;;;;;;;6.60;99.90;;;;;;4974950;28;19926;-62
2024/03/15 04:42:42;;;;;;;;;;;6.60;99.90;;;;;;4961422;28;19934;-62
2024/03/15 04:45:14;;;;;;;;;;;6.50;99.90;;;;;;4974398;28;19926;-62
2024/03/15 04:47:46;;;;;;;;;;;6.50;99.90;;;;;;4985785;28;19933;-62
2024/03/15 04:50:17;;;;;;;;;;;6.40;99.90;;;;;;4967946;28;19926;-62
2024/03/15 04:52:50;;;;;;;;;;;6.40;99.90;;;;;;4974089;28;19930;-63
2024/03/15 04:55:21;;;;;;;;;;;6.50;99.90;;;;;;4987072;28;19961;-62
2024/03/15 04:57:48;;;;;;;;;;;6.60;99.90;;;;;;4984067;28;19926;-62
2024/03/15 05:00:20;;;;;;;;;;;6.60;99.90;;;;;;4987644;28;19930;-62
2024/03/15 05:02:52;;;;;;;;;;;6.60;99.90;;;;;;4991574;28;20286;-62
2024/03/15 05:05:25;;;;;;;;;;;6.60;99.90;;;;;;4994269;28;19932;-62
2024/03/15 05:07:56;;;;;;;;;;;6.60;99.90;;;;;;4999502;28;19930;-63
2024/03/15 05:10:28;;;;;;;;;;;6.60;99.90;;;;;;4995163;28;19926;-63
2024/03/15 05:13:00;;;;;;;;;;;6.50;99.90;;;;;;4995799;28;19940;-62
2024/03/15 05:15:33;;;;;;;;;;;6.50;99.90;;;;;;4997843;28;19926;-63
2024/03/15 05:18:05;;;;;;;;;;;6.50;99.90;;;;;;4995618;28;19988;-62
2024/03/15 05:20:39;;;;;;;;;;;6.40;99.90;;;;;;4997452;28;19937;-63
2024/03/15 05:23:11;;;;;;;;;;;6.30;99.90;;;;;;4995167;28;20395;-63
2024/03/15 05:25:43;;;;;;;;;;;6.30;99.90;;;;;;4970876;28;19968;-62
2024/03/15 05:28:09;;;;;;;;;;;6.20;99.90;;;;;;4985376;28;20364;-62
2024/03/15 05:30:43;;;;;;;;;;;6.20;99.90;;;;;;4981507;28;19926;-62
2024/03/15 05:33:15;;;;;;;;;;;6.10;99.90;;;;;;4993984;28;20005;-62
2024/03/15 05:35:42;;;;;;;;;;;6.10;99.90;;;;;;4978236;28;19926;-62
2024/03/15 05:38:14;;;;;;;;;;;6.10;99.90;;;;;;4997794;28;20374;-62
2024/03/15 05:40:46;;;;;;;;;;;6.30;99.90;;;;;;4980045;28;19940;-62
2024/03/15 05:43:18;;;;;;;;;;;6.30;99.90;;;;;;4998535;28;19940;-63
2024/03/15 05:45:49;;;;;;;;;;;6.20;99.90;;;;;;5001608;28;19926;-62
2024/03/15 05:48:21;;;;;;;;;;;6.20;99.90;;;;;;4979296;28;19933;-62
2024/03/15 05:50:53;;;;;;;;;;;6.20;99.90;;;;;;4992835;28;19927;-62
2024/03/15 05:53:25;;;;;;;;;;;6.20;99.90;;;;;;4990771;28;20014;-62
2024/03/15 05:55:56;;;;;;;;;;;6.20;99.90;;;;;;4983398;28;19930;-62
2024/03/15 05:58:28;;;;;;;;;;;6.10;99.90;;;;;;4994200;28;19925;-62
2024/03/15 06:01:00;;;;;;;;;;;6.20;99.90;;;;;;4996707;28;20400;-62
2024/03/15 06:03:32;;;;;;;;;;;6.50;99.90;;;;;;4981298;28;19936;-62
2024/03/15 06:06:08;;;;;;;;;;;6.90;99.90;;;;;;4994272;28;19930;-62
2024/03/15 06:08:42;;;;;;;;;;;7.30;99.90;;;;;;4980960;28;20420;-62
2024/03/15 06:11:14;;;;;;;;;;;7.60;99.90;;;;;;4998339;28;19936;-62
2024/03/15 06:13:45;;;;;;;;;;;8.10;99.90;;;;;;4991450;28;19933;-62
2024/03/15 06:16:21;;;;;;;;;;;8.30;99.90;;;;;;4989906;28;19930;-62
2024/03/15 06:18:53;;;;;;;;;;;8.40;99.90;;;;;;4987287;28;19948;-62
2024/03/15 06:21:26;;;;;;;;;;;8.60;99.90;;;;;;4988594;28;19926;-62
2024/03/15 06:23:58;;;;;;;;;;;8.70;99.90;;;;;;4980695;28;19936;-61
2024/03/15 06:26:30;;;;;;;;;;;8.80;99.90;;;;;;4986727;28;19926;-62
2024/03/15 06:28:57;;;;;;;;;;;9.00;99.90;;;;;;4986623;28;20424;-62
2024/03/15 06:31:29;;;;;;;;;;;9.10;99.90;;;;;;4982405;28;19926;-62
2024/03/15 06:34:07;;;;;;;;;;;9.20;99.90;;;;;;4988857;28;19964;-62
2024/03/15 06:36:44;;;;;;;;;;;9.40;99.90;;;;;;4987692;28;19936;-62
2024/03/15 06:39:32;;;;;;;;;;;9.50;99.90;;;;;;4989024;28;19934;-62
2024/03/15 06:42:20;;;;;;;;;;;9.50;99.90;;;;;;4986862;28;20033;-62
2024/03/15 06:44:50;;;;;;;;;;;9.60;99.90;;;;;;4972621;28;20426;-62
2024/03/15 06:47:28;;;;;;;;;;;9.80;99.90;;;;;;4981480;28;19926;-62
2024/03/15 06:50:30;;;;;;;;;;;10.00;99.90;;;;;;4986622;28;19937;-62
2024/03/15 06:53:02;;;;;;;;;;;10.00;99.90;;;;;;4983646;28;19930;-62
2024/03/15 06:55:33;;;;;;;;;;;10.00;99.90;;;;;;4979526;28;19940;-62
2024/03/15 06:58:06;;;;;;;;;;;10.00;99.90;;;;;;4988045;28;19926;-62
2024/03/15 07:00:40;;;;;;;;;;;10.00;99.90;;;;;;4987041;28;19949;-61
2024/03/15 07:03:13;;;;;;;;;;;10.00;99.90;;;;;;4987979;28;19926;-62
2024/03/15 07:05:44;;;;;;;;;;;10.10;99.90;;;;;;4972928;28;19926;-62
2024/03/15 07:08:16;;;;;;;;;;;10.20;99.90;;;;;;4988125;28;19945;-62
2024/03/15 07:10:48;;;;;;;;;;;10.20;99.90;;;;;;4971505;28;19969;-62
2024/03/15 07:13:21;;;;;;;;;;;10.30;99.90;;;;;;4986635;28;19926;-62
2024/03/15 07:15:53;;;;;;;;;;;10.40;99.90;;;;;;4985830;28;19930;-62
2024/03/15 07:18:24;;;;;;;;;;;10.40;99.90;;;;;;4974103;28;20021;-62
2024/03/15 07:20:56;;;;;;;;;;;10.40;99.90;;;;;;4988246;28;19930;-62
2024/03/15 07:23:31;;;;;;;;;;;10.40;99.90;;;;;;4993155;28;19925;-62
2024/03/15 07:26:03;;;;;;;;;;;10.50;99.90;;;;;;4986881;28;19925;-62
2024/03/15 07:28:35;;;;;;;;;;;10.50;99.90;;;;;;4992008;28;19992;-62
2024/03/15 07:31:08;;;;;;;;;;;10.50;99.90;;;;;;4993103;28;20023;-62
2024/03/15 07:33:41;;;;;;;;;;;10.50;99.90;;;;;;4977530;28;19969;-62
2024/03/15 07:36:13;;;;;;;;;;;10.50;99.90;;;;;;4989895;28;20029;-62
2024/03/15 07:38:46;;;;;;;;;;;10.50;99.90;;;;;;4990556;28;19933;-62
2024/03/15 07:41:17;;;;;;;;;;;10.60;99.90;;;;;;4972122;28;20386;-62
2024/03/15 07:43:49;;;;;;;;;;;10.60;99.90;;;;;;4968390;28;20374;-62
2024/03/15 07:46:22;;;;;;;;;;;10.60;99.90;;;;;;4989325;28;19930;-62
2024/03/15 07:48:53;;;;;;;;;;;10.60;99.90;;;;;;4990172;28;19930;-62
2024/03/15 07:51:20;;;;;;;;;;;10.60;99.90;;;;;;4987971;28;20024;-62
2024/03/15 07:53:52;;;;;;;;;;;10.70;99.90;;;;;;4974718;28;19936;-62
2024/03/15 07:56:24;;;;;;;;;;;10.70;99.90;;;;;;4975674;28;19932;-65
2024/03/15 07:58:56;;;;;;;;;;;10.70;99.90;;;;;;4974799;28;20024;-62
2024/03/15 08:01:28;;;;;;;;;;;10.70;99.90;;;;;;4976308;28;20409;-63
2024/03/15 08:03:59;;;;;;;;;;;10.70;99.90;;;;;;4990387;28;19929;-62
2024/03/15 08:06:33;;;;;;;;;;;10.50;99.90;;;;;;4987245;28;20011;-62
2024/03/15 08:09:05;;;;;;;;;;;10.40;99.90;;;;;;4988779;28;19954;-62
2024/03/15 08:11:37;;;;;;;;;;;10.30;99.90;;;;;;4975826;28;20504;-63
2024/03/15 08:14:09;;;;;;;;;;;10.30;99.90;;;;;;4985382;28;19945;-63
2024/03/15 08:16:41;;;;;;;;;;;10.20;99.90;;;;;;4971917;28;19933;-63
2024/03/15 08:19:13;;;;;;;;;;;10.20;99.90;;;;;;4975940;28;19926;-63
2024/03/15 08:21:46;;;;;;;;;;;10.30;99.90;;;;;;4986939;28;19934;-63
2024/03/15 08:24:18;;;;;;;;;;;10.30;99.90;;;;;;4958056;28;19926;-62
2024/03/15 08:26:49;;;;;;;;;;;10.40;99.90;;;;;;4990305;28;19925;-62
2024/03/15 08:29:21;;;;;;;;;;;10.40;99.90;;;;;;4990406;28;19954;-62
2024/03/15 08:31:53;;;;;;;;;;;10.50;99.90;;;;;;4986971;28;19930;-63
2024/03/15 08:34:26;;;;;;;;;;;10.50;99.90;;;;;;4974657;28;19953;-62
2024/03/15 08:36:58;;;;;;;;;;;10.60;99.90;;;;;;4991032;28;19930;-62
2024/03/15 08:39:30;;;;;;;;;;;10.70;99.90;;;;;;4986940;28;20033;-62
2024/03/15 08:42:02;;;;;;;;;;;10.70;99.90;;;;;;4972310;28;19930;-62
2024/03/15 08:44:34;;;;;;;;;;;10.80;99.90;;;;;;4989066;28;20004;-62
2024/03/15 08:47:05;;;;;;;;;;;10.90;99.90;;;;;;4989368;28;19961;-63
2024/03/15 08:49:37;;;;;;;;;;;11.10;99.90;;;;;;4975179;28;20394;-62
2024/03/15 08:52:09;;;;;;;;;;;11.40;99.90;;;;;;4974191;28;19981;-62
2024/03/15 08:54:35;;;;;;;;;;;11.50;99.90;;;;;;4973137;28;20446;-62
2024/03/15 08:57:10;;;;;;;;;;;11.80;99.90;;;;;;4986034;28;19926;-63
2024/03/15 08:59:41;;;;;;;;;;;11.90;99.90;;;;;;4986923;28;19988;-62
2024/03/15 09:02:13;;;;;;;;;;;12.00;99.90;;;;;;4996973;28;20393;-63
2024/03/15 09:04:46;;;;;;;;;;;12.10;99.90;;;;;;4979138;28;19930;-63
2024/03/15 09:07:14;;;;;;;;;;;12.20;99.90;;;;;;4994779;28;19926;-63
2024/03/15 09:09:47;;;;;;;;;;;12.20;99.90;;;;;;4999368;28;19936;-63
2024/03/15 09:12:18;;;;;;;;;;;12.20;99.90;;;;;;4981543;28;20313;-63
2024/03/15 09:14:52;;;;;;;;;;;12.20;99.90;;;;;;4997194;28;19937;-63
2024/03/15 09:17:24;;;;;;;;;;;12.20;99.90;;;;;;4997746;28;19936;-63
2024/03/15 09:19:57;;;;;;;;;;;12.20;99.90;;;;;;4995408;28;19925;-63
2024/03/15 09:22:29;;;;;;;;;;;12.20;99.90;;;;;;4979105;28;19926;-63
2024/03/15 09:24:56;;;;;;;;;;;12.20;99.90;;;;;;4998487;28;20020;-63
2024/03/15 09:27:27;;;;;;;;;;;12.20;99.90;;;;;;4998559;28;19936;-63
2024/03/15 09:30:15;;;;;;;;;;;12.30;99.90;;;;;;4998956;28;19965;-63
2024/03/15 09:32:46;;;;;;;;;;;12.40;99.90;;;;;;4998797;28;19926;-63
2024/03/15 09:35:18;;;;;;;;;;;12.50;99.90;;;;;;4985267;28;19992;-63
2024/03/15 09:37:50;;;;;;;;;;;12.60;99.90;;;;;;5000191;28;19936;-63
2024/03/15 09:40:28;;;;;;;;;;;12.70;99.90;;;;;;4984403;28;19925;-63
2024/03/15 09:42:59;;;;;;;;;;;12.90;99.90;;;;;;4983541;28;19957;-63
2024/03/15 09:45:31;;;;;;;;;;;13.00;99.90;;;;;;5000636;28;19929;-63
2024/03/15 09:48:09;;;;;;;;;;;13.10;99.90;;;;;;5001982;28;19948;-63
2024/03/15 09:50:44;;;;;;;;;;;13.20;99.90;;;;;;5000583;28;20365;-63
2024/03/15 09:53:16;;;;;;;;;;;13.30;99.90;;;;;;5000756;28;19952;-63
2024/03/15 09:55:52;;;;;;;;;;;13.40;99.90;;;;;;5001851;28;19957;-63
2024/03/15 09:58:24;;;;;;;;;;;13.50;99.90;;;;;;5001178;28;20019;-63
2024/03/15 10:00:58;;;;;;;;;;;13.60;99.90;;;;;;4971233;28;19929;-63
2024/03/15 10:03:25;;;;;;;;;;;13.70;99.90;;;;;;4989265;28;20361;-62
2024/03/15 10:05:57;;;;;;;;;;;13.80;99.90;;;;;;4989681;28;20396;-63
2024/03/15 10:08:29;;;;;;;;;;;13.90;99.90;;;;;;4987491;28;19933;-63
2024/03/15 10:11:02;;;;;;;;;;;14.00;99.90;;;;;;4988640;28;20322;-62
2024/03/15 10:13:34;;;;;;;;;;;14.10;99.90;;;;;;4987150;28;19932;-62
2024/03/15 10:16:09;;;;;;;;;;;14.20;99.90;;;;;;4986657;28;19932;-62
2024/03/15 10:18:42;;;;;;;;;;;14.40;99.90;;;;;;4986954;28;19929;-62
2024/03/15 10:21:14;;;;;;;;;;;14.50;99.90;;;;;;4967707;28;19930;-62
2024/03/15 10:23:40;;;;;;;;;;;14.70;99.90;;;;;;4987282;28;20048;-62
2024/03/15 10:26:13;;;;;;;;;;;14.80;99.90;;;;;;4984007;28;19926;-62
2024/03/15 10:28:46;;;;;;;;;;;14.80;99.90;;;;;;4986881;28;19932;-62
2024/03/15 10:31:17;;;;;;;;;;;14.90;99.90;;;;;;4972543;28;19936;-62
2024/03/15 10:33:49;;;;;;;;;;;15.00;99.90;;;;;;4973698;28;20536;-62
2024/03/15 10:36:21;;;;;;;;;;;15.00;99.90;;;;;;4987623;28;20046;-62
2024/03/15 10:38:53;;;;;;;;;;;15.00;99.90;;;;;;4987305;28;19933;-62
2024/03/15 10:41:25;;;;;;;;;;;15.00;99.90;;;;;;4989848;28;19930;-62
2024/03/15 10:44:00;;;;;;;;;;;15.10;99.90;;;;;;4967699;28;19973;-62
2024/03/15 10:46:32;;;;;;;;;;;15.10;99.90;;;;;;4987798;28;20345;-62
2024/03/15 10:49:04;;;;;;;;;;;15.20;99.90;;;;;;4986100;28;19926;-62
2024/03/15 10:51:36;;;;;;;;;;;15.30;99.90;;;;;;4965749;28;20295;-62
2024/03/15 10:54:13;;;;;;;;;;;15.40;99.90;;;;;;4988338;28;20008;-62
2024/03/15 10:56:46;;;;;;;;;;;15.50;99.90;;;;;;4985362;28;19969;-62
2024/03/15 10:59:18;;;;;;;;;;;15.60;99.90;;;;;;4986093;28;20456;-61
2024/03/15 11:01:45;;;;;;;;;;;15.60;99.90;;;;;;4985854;28;19936;-62
2024/03/15 11:04:17;;;;;;;;;;;15.60;99.90;;;;;;4988128;28;19926;-62
2024/03/15 11:06:49;;;;;;;;;;;15.60;99.90;;;;;;4986955;28;19926;-62
2024/03/15 11:09:21;;;;;;;;;;;15.60;99.90;;;;;;4983547;28;20449;-62
2024/03/15 11:12:00;;;;;;;;;;;15.60;99.90;;;;;;4971910;28;19934;-62
2024/03/15 11:14:33;;;;;;;;;;;15.60;99.90;;;;;;4980185;28;19976;-62
2024/03/15 11:17:08;;;;;;;;;;;15.70;99.90;;;;;;4983513;28;19926;-62
2024/03/15 11:19:44;;;;;;;;;;;15.60;99.90;;;;;;4989570;28;19933;-62
2024/03/15 11:22:17;;;;;;;;;;;15.60;99.90;;;;;;4983483;28;19961;-62
2024/03/15 11:24:47;;;;;;;;;;;15.80;99.90;;;;;;4987261;28;19927;-62
2024/03/15 11:27:19;;;;;;;;;;;15.90;99.90;;;;;;4987985;28;19932;-62
2024/03/15 11:29:56;;;;;;;;;;;16.00;99.90;;;;;;4987403;28;19930;-62
2024/03/15 11:32:29;;;;;;;;;;;15.90;99.90;;;;;;4983047;28;19930;-62
2024/03/15 11:35:01;;;;;;;;;;;15.70;99.90;;;;;;4985646;28;20293;-62
2024/03/15 11:37:32;;;;;;;;;;;15.70;99.90;;;;;;4985778;28;19932;-62
2024/03/15 11:40:04;;;;;;;;;;;15.80;99.90;;;;;;4979586;28;20013;-62
2024/03/15 11:42:36;;;;;;;;;;;15.90;99.90;;;;;;4986161;28;19981;-62
2024/03/15 11:45:03;;;;;;;;;;;16.10;99.90;;;;;;4984432;28;19926;-62
2024/03/15 11:47:35;;;;;;;;;;;16.30;99.90;;;;;;4984089;28;20013;-59
2024/03/15 11:50:03;;;;;;;;;;;16.30;99.90;;;;;;4985313;28;19948;-60
2024/03/15 11:52:35;;;;;;;;;;;16.50;99.90;;;;;;4980535;28;19930;-60
2024/03/15 11:55:03;;;;;;;;;;;16.60;99.90;;;;;;4984577;28;19925;-60
2024/03/15 11:57:36;;;;;;;;;;;16.50;99.90;;;;;;4982663;28;19934;-62
2024/03/15 12:00:20;;;;;;;;;;;16.60;99.90;;;;;;4982306;28;19930;-62
2024/03/15 12:02:56;;;;;;;;;;;16.60;99.90;;;;;;4987742;28;20013;-62
2024/03/15 12:05:28;;;;;;;;;;;16.60;99.90;;;;;;4985034;28;20031;-62
2024/03/15 12:08:00;;;;;;;;;;;16.60;99.90;;;;;;4984213;28;19926;-62
2024/03/15 12:10:31;;;;;;;;;;;16.60;99.90;;;;;;4982981;28;19930;-62
2024/03/15 12:13:11;;;;;;;;;;;16.60;99.90;;;;;;4974896;28;19933;-62
2024/03/15 12:15:44;;;;;;;;;;;16.50;99.90;;;;;;4988298;28;19926;-62
2024/03/15 12:18:19;;;;;;;;;;;16.50;99.90;;;;;;4985030;28;20425;-62
2024/03/15 12:20:52;;;;;;;;;;;16.50;99.90;;;;;;4971530;28;19980;-62
2024/03/15 12:23:20;;;;;;;;;;;16.60;99.90;;;;;;4975696;28;19934;-62
2024/03/15 12:25:51;;;;;;;;;;;16.70;99.90;;;;;;4998438;28;19936;-62
2024/03/15 12:28:23;;;;;;;;;;;16.80;99.90;;;;;;4987707;28;19948;-62
2024/03/15 12:30:57;;;;;;;;;;;16.80;99.90;;;;;;4996932;28;19926;-62
2024/03/15 12:33:29;;;;;;;;;;;16.80;99.90;;;;;;4997483;28;19940;-61
2024/03/15 12:36:04;;;;;;;;;;;16.90;99.90;;;;;;4980053;28;20408;-62
2024/03/15 12:38:36;;;;;;;;;;;17.00;99.90;;;;;;4970271;28;19933;-62
2024/03/15 12:41:08;;;;;;;;;;;16.90;99.90;;;;;;4974768;28;19930;-62
2024/03/15 12:43:39;;;;;;;;;;;16.70;99.90;;;;;;4993519;28;19961;-61
2024/03/15 12:46:14;;;;;;;;;;;16.80;99.90;;;;;;4997081;28;19961;-62
2024/03/15 12:48:40;;;;;;;;;;;16.90;99.90;;;;;;4991769;28;20678;-62
2024/03/15 12:51:12;;;;;;;;;;;17.00;99.90;;;;;;4991069;28;19941;-63
2024/03/15 12:53:44;;;;;;;;;;;17.10;99.90;;;;;;4971349;28;19930;-63
2024/03/15 12:56:16;;;;;;;;;;;17.30;99.90;;;;;;4987317;28;20310;-63
2024/03/15 12:58:48;;;;;;;;;;;17.40;99.90;;;;;;4979548;28;19943;-63
2024/03/15 13:01:20;;;;;;;;;;;17.60;99.90;;;;;;4979796;28;19932;-63
2024/03/15 13:03:51;;;;;;;;;;;17.50;99.90;;;;;;4970953;28;19936;-62
2024/03/15 13:06:23;;;;;;;;;;;17.30;99.90;;;;;;4981695;28;20622;-62
2024/03/15 13:08:57;;;;;;;;;;;17.00;99.90;;;;;;4974134;28;19925;-62
2024/03/15 13:11:29;;;;;;;;;;;16.80;99.90;;;;;;4990076;28;19952;-63
2024/03/15 13:14:01;;;;;;;;;;;16.60;99.90;;;;;;4974203;28;19932;-62
2024/03/15 13:16:32;;;;;;;;;;;16.50;99.90;;;;;;4990284;28;19926;-62
2024/03/15 13:19:05;;;;;;;;;;;16.40;99.90;;;;;;4988733;28;19925;-62
2024/03/15 13:21:36;;;;;;;;;;;16.50;99.90;;;;;;4986272;28;19955;-62
2024/03/15 13:24:08;;;;;;;;;;;16.60;99.90;;;;;;4989411;28;19933;-62
2024/03/15 13:26:40;;;;;;;;;;;16.60;99.90;;;;;;4985458;28;19966;-62
2024/03/15 13:29:12;;;;;;;;;;;16.60;99.90;;;;;;4985866;28;20025;-62
2024/03/15 13:31:44;;;;;;;;;;;16.70;99.90;;;;;;4991934;28;19941;-61
2024/03/15 13:34:16;;;;;;;;;;;16.70;99.90;;;;;;4989520;28;19930;-62
2024/03/15 13:36:47;;;;;;;;;;;16.80;99.90;;;;;;4991219;28;19933;-62
2024/03/15 13:39:27;;;;;;;;;;;16.90;99.90;;;;;;4990546;28;19929;-62
2024/03/15 13:42:01;;;;;;;;;;;17.00;99.90;;;;;;4988057;28;20211;-62
2024/03/15 13:44:35;;;;;;;;;;;16.80;99.90;;;;;;4987647;28;20313;-62
2024/03/15 13:47:07;;;;;;;;;;;16.70;99.90;;;;;;4989083;28;19925;-59
2024/03/15 13:49:39;;;;;;;;;;;16.60;99.90;;;;;;4994052;28;19934;-62
2024/03/15 13:52:11;;;;;;;;;;;16.30;99.90;;;;;;4993200;28;20318;-62
2024/03/15 13:54:42;;;;;;;;;;;16.10;99.90;;;;;;4976540;28;19965;-62
2024/03/15 13:57:14;;;;;;;;;;;15.90;99.90;;;;;;4999821;28;19929;-62
2024/03/15 13:59:41;;;;;;;;;;;15.70;99.90;;;;;;4978353;28;19926;-62
2024/03/15 14:02:13;;;;;;;;;;;15.60;99.90;;;;;;4990562;28;20024;-63
2024/03/15 14:04:43;;;;;;;;;;;15.50;99.90;;;;;;4998314;28;20393;-62
2024/03/15 14:07:16;;;;;;;;;;;15.40;99.90;;;;;;5001451;28;19936;-63
2024/03/15 14:09:52;;;;;;;;;;;15.50;99.90;;;;;;4998965;28;19930;-62
2024/03/15 14:12:24;;;;;;;;;;;15.40;99.90;;;;;;4997521;28;20020;-62
2024/03/15 14:14:56;;;;;;;;;;;15.50;99.90;;;;;;4997156;28;19932;-62
2024/03/15 14:17:28;;;;;;;;;;;15.50;99.90;;;;;;4993641;28;19932;-62
2024/03/15 14:20:00;;;;;;;;;;;15.60;99.90;;;;;;4989077;28;19988;-63
2024/03/15 14:22:31;;;;;;;;;;;15.80;99.90;;;;;;4980883;28;19929;-66
2024/03/15 14:25:04;;;;;;;;;;;16.00;99.90;;;;;;4990152;28;20406;-65
2024/03/15 14:27:36;;;;;;;;;;;16.30;99.90;;;;;;4989577;28;20394;-63
2024/03/15 14:30:09;;;;;;;;;;;16.40;99.90;;;;;;4977743;28;19962;-62
2024/03/15 14:32:45;;;;;;;;;;;16.40;99.90;;;;;;4977739;28;20012;-62
2024/03/15 14:35:16;;;;;;;;;;;16.30;99.90;;;;;;4991662;28;20020;-62
2024/03/15 14:37:48;;;;;;;;;;;16.10;99.90;;;;;;4996702;28;20023;-61
2024/03/15 14:40:24;;;;;;;;;;;16.00;99.90;;;;;;4978230;28;19965;-62
2024/03/15 14:42:56;;;;;;;;;;;16.10;99.90;;;;;;4979656;28;20354;-61
2024/03/15 14:45:31;;;;;;;;;;;16.10;99.90;;;;;;4991583;28;19937;-62
2024/03/15 14:48:03;;;;;;;;;;;16.00;99.90;;;;;;4995319;28;19932;-61
2024/03/15 14:50:36;;;;;;;;;;;15.90;99.90;;;;;;4994993;28;19932;-62
2024/03/15 14:53:08;;;;;;;;;;;15.80;99.90;;;;;;4977731;28;19930;-62